Date,TemperatureHighF,TemperatureAvgF,TemperatureLowF,DewpointHighF,DewpointAvgF,DewpointLowF,HumidityHigh,HumidityAvg,HumidityLow,PressureMaxIn,PressureMinIn,WindSpeedMaxMPH,WindSpeedAvgMPH,GustSpeedMaxMPH,PrecipitationSumIn
2013-1-1,45.3,32.3,24.3,40.8,29.2,23.8,98,89,59,29.88,29.74,4,0,4,0.09
2013-1-2,49.1,31.8,22.8,37.0,24.6,19.6,98,78,41,29.74,29.59,8,1,8,0.00
2013-1-3,47.1,31.2,21.6,35.0,25.8,20.1,98,82,45,30.27,29.53,4,0,4,0.04
2013-1-4,44.2,36.9,31.8,42.6,36.1,31.3,98,97,91,30.39,30.21,2,0,2,0.00
2013-1-5,40.6,36.3,33.8,35.7,33.4,31.5,98,89,73,30.30,30.18,4,0,4,0.00
2013-1-6,42.4,37.2,31.1,41.6,36.2,30.5,98,96,89,30.27,30.09,6,0,6,0.08
2013-1-7,50.5,44.9,41.5,50.0,44.4,41.0,98,98,98,30.27,30.00,6,0,6,0.25
2013-1-8,53.1,47.0,40.8,52.0,46.1,40.3,98,97,86,30.27,29.88,9,1,9,0.13
2013-1-9,48.9,39.5,32.0,45.9,37.8,31.0,98,94,80,30.03,29.71,8,0,8,0.49
2013-1-10,41.2,34.3,31.8,40.7,33.8,31.3,98,98,94,30.15,30.00,3,0,3,0.13
2013-1-11,44.4,32.5,26.6,39.3,28.6,21.6,98,87,48,30.36,30.12,8,0,8,0.00
2013-1-12,43.7,28.8,22.8,37.1,24.8,20.6,98,86,50,30.47,30.33,5,0,5,1.12
2013-1-13,42.1,27.6,17.6,32.6,21.9,15.8,96,81,49,30.56,30.44,5,0,5,0.00
2013-1-14,34.7,29.6,21.6,30.9,27.5,19.3,97,92,81,30.62,30.53,4,0,4,0.00
2013-1-15,40.1,33.7,31.5,36.5,32.5,30.5,98,96,82,30.74,30.62,5,0,6,0.00
2013-1-16,38.5,33.3,30.0,35.8,32.4,29.5,98,96,88,30.71,30.53,3,0,3,0.00
2013-1-17,54.5,34.5,24.3,39.8,28.9,23.8,98,83,44,30.56,30.36,5,0,5,0.00
2013-1-18,61.0,33.4,22.3,40.0,27.8,21.2,98,83,44,30.36,30.30,3,0,3,0.00
2013-1-19,61.9,33.8,20.8,40.7,27.4,19.1,98,80,45,30.39,30.27,2,0,2,0.00
2013-1-20,59.2,32.4,19.9,37.7,25.4,15.1,97,78,37,30.41,30.24,4,0,4,0.00
2013-1-21,56.1,35.0,21.9,36.4,24.1,19.3,91,68,36,30.33,30.15,4,0,4,0.00
2013-1-22,45.1,30.7,19.4,34.6,24.3,17.0,97,79,48,30.21,29.94,4,0,4,0.00
2013-1-23,37.6,34.8,32.9,33.8,29.8,22.8,98,83,60,30.24,29.91,5,0,6,0.12
2013-1-24,43.9,37.3,32.5,42.8,36.0,32.0,98,95,85,30.30,30.12,4,0,4,0.09
2013-1-25,55.2,40.3,32.5,50.5,38.7,32.0,98,94,75,30.15,30.00,3,0,4,0.00
2013-1-26,49.6,36.7,30.6,46.7,35.3,30.1,98,95,71,30.15,29.94,6,0,6,0.04
2013-1-27,41.9,36.5,31.8,41.2,35.9,31.3,98,98,94,30.18,30.06,3,0,4,0.16
2013-1-28,43.0,39.6,36.1,42.5,39.1,35.6,98,98,98,30.24,30.12,4,0,4,0.46
2013-1-29,48.2,44.0,40.5,47.7,43.5,39.9,98,98,97,30.50,30.24,4,0,4,0.08
2013-1-30,52.3,45.5,41.7,51.8,45.0,41.0,98,98,96,30.53,30.44,5,0,5,0.13
2013-1-31,52.0,43.4,35.6,51.1,42.6,35.1,98,97,89,30.50,30.36,1,0,1,0.00
2013-2-1,57.6,44.0,35.8,54.7,41.3,35.3,98,91,60,30.44,30.33,6,0,6,0.00
2013-2-2,64.6,41.9,30.2,49.0,36.0,29.7,98,83,40,30.39,30.27,4,0,4,11.74
2013-2-3,47.7,41.5,36.0,45.3,40.2,35.3,98,95,85,30.39,30.24,3,0,3,0.00
2013-2-4,55.2,43.9,38.3,47.5,40.8,37.8,98,90,65,30.27,29.97,3,0,3,0.00
2013-2-5,55.6,44.1,36.5,48.8,41.1,36.0,98,90,59,30.06,29.91,6,0,6,0.45
2013-2-6,47.7,42.7,36.1,45.0,40.2,35.6,98,91,78,30.12,29.82,16,1,16,0.12
2013-2-7,54.1,39.1,32.2,48.0,34.6,30.6,98,85,49,30.21,29.88,5,0,5,0.00
2013-2-8,52.7,38.7,30.9,47.2,32.9,28.7,98,82,43,30.36,30.21,7,0,7,0.00
2013-2-9,48.7,41.7,35.4,44.5,39.6,33.6,98,92,76,30.36,30.30,4,0,4,0.05
2013-2-10,45.7,40.3,35.4,44.2,38.6,34.9,98,94,82,30.41,30.36,3,0,3,0.00
2013-2-11,50.0,42.5,38.3,44.3,40.4,37.8,98,92,78,30.44,30.36,5,0,5,0.00
2013-2-12,56.8,46.8,42.3,55.2,44.3,41.7,98,92,73,30.50,30.41,3,0,3,0.04
2013-2-13,54.9,43.1,32.0,48.3,39.3,31.2,98,88,51,30.59,30.47,5,0,5,0.00
2013-2-14,50.5,41.8,32.2,45.7,39.7,31.2,98,93,80,30.62,30.56,3,0,3,1.74
2013-2-15,69.1,49.2,36.0,49.5,40.9,34.7,98,78,34,30.59,30.24,6,0,6,0.00
2013-2-16,53.1,41.7,34.7,47.8,38.6,34.2,98,90,56,30.33,30.24,10,0,229,0.04
2013-2-17,52.3,39.1,33.1,45.5,35.9,32.1,98,89,56,30.33,30.12,6,0,6,0.08
2013-2-18,48.9,41.1,35.1,38.6,35.0,31.7,98,80,55,30.15,29.74,6,1,6,0.21
2013-2-19,58.1,41.4,30.4,46.0,35.7,29.0,98,82,44,30.03,29.71,5,0,5,0.04
2013-2-20,47.8,36.8,29.3,42.3,34.5,28.3,98,92,63,30.12,30.00,6,0,6,0.08
2013-2-21,46.9,40.2,36.5,41.7,38.2,35.5,98,93,67,30.21,30.06,10,0,10,0.17
2013-2-22,46.9,39.9,33.3,46.4,39.1,32.8,98,97,88,30.18,29.88,10,1,10,0.58
2013-2-23,50.7,39.0,33.8,46.2,35.3,31.2,98,88,56,30.47,30.06,7,0,7,0.12
2013-2-24,55.0,42.2,34.5,45.6,35.2,31.5,98,79,46,30.47,30.03,9,0,9,0.00
2013-2-25,50.9,39.3,31.3,45.7,36.6,30.8,98,91,68,30.44,30.00,14,0,14,0.54
2013-2-26,52.2,38.3,30.2,44.2,34.2,29.7,98,86,49,30.44,30.24,8,0,8,0.04
2013-2-27,52.9,43.9,35.6,50.5,39.4,35.1,98,85,59,30.36,30.24,8,0,8,0.00
2013-2-28,59.7,50.9,44.4,53.3,47.7,43.5,98,89,68,30.44,30.21,11,1,11,0.04
2013-3-1,61.0,51.3,43.2,52.6,47.7,42.6,98,88,63,30.50,30.36,6,0,6,0.00
2013-3-2,57.6,45.1,35.6,50.1,42.7,35.1,98,92,64,30.39,30.18,7,0,7,0.04
2013-3-3,54.5,37.6,27.9,47.5,31.9,27.4,98,83,39,30.36,30.30,8,0,8,0.04
2013-3-4,59.2,40.0,29.1,47.1,28.4,22.4,98,71,26,30.33,29.97,11,1,11,0.00
2013-3-5,46.6,39.2,28.8,42.2,36.9,25.8,98,92,74,29.97,29.68,8,1,8,0.21
2013-3-6,47.3,41.5,37.4,45.3,40.6,36.9,98,97,87,29.97,29.56,6,0,6,0.29
2013-3-7,63.5,42.7,33.3,50.2,35.2,30.4,98,79,36,30.09,29.97,5,0,5,0.04
2013-3-8,61.7,41.4,29.3,46.5,32.1,26.0,98,75,32,30.27,30.06,7,0,7,0.00
2013-3-9,62.8,41.5,28.0,43.7,33.4,25.8,98,78,35,30.56,30.27,6,0,6,0.00
2013-3-10,50.7,42.0,34.0,45.9,40.2,32.0,98,93,79,30.56,30.47,3,0,4,0.00
2013-3-11,55.9,48.4,43.7,50.8,45.8,43.2,98,91,70,30.50,30.27,6,0,6,0.21
2013-3-12,60.4,50.7,43.9,53.2,44.6,40.9,98,82,51,30.27,30.18,8,0,8,0.00
2013-3-13,65.7,52.4,44.4,51.5,46.0,43.2,98,81,48,30.30,30.12,6,0,6,0.00
2013-3-14,56.7,49.7,44.2,50.1,45.1,40.1,98,85,61,30.24,30.09,6,0,6,0.04
2013-3-15,68.2,49.8,40.6,53.3,44.7,40.0,98,85,44,30.30,30.21,7,0,7,0.00
2013-3-16,54.5,43.7,35.8,48.6,41.5,35.2,98,92,65,30.24,30.06,6,0,6,0.33
2013-3-17,52.7,40.2,33.6,48.6,34.8,29.7,98,83,49,30.33,30.12,6,0,6,0.17
2013-3-18,55.2,40.8,32.9,40.5,34.2,30.6,97,79,49,30.30,30.24,4,0,4,0.04
2013-3-19,51.3,40.4,32.0,44.6,38.1,31.5,98,92,57,30.24,29.62,6,0,6,0.58
2013-3-20,58.8,45.7,34.3,49.5,42.6,33.8,98,89,58,30.18,29.50,11,1,11,0.79
2013-3-21,54.5,38.8,32.7,47.0,34.8,29.3,98,87,50,30.33,30.18,6,0,6,0.29
2013-3-22,54.5,37.3,30.4,44.8,33.3,28.2,98,87,57,30.44,30.30,5,0,5,0.16
2013-3-23,53.6,38.8,31.1,41.1,31.0,25.9,98,77,38,30.47,30.33,5,0,5,0.00
2013-3-24,61.3,43.5,31.3,45.6,31.1,26.5,100,68,32,30.36,30.12,8,1,8,0.00
2013-3-25,69.4,49.8,32.0,43.3,33.9,28.6,96,61,26,30.18,29.94,6,0,6,0.00
2013-3-26,65.5,48.5,39.2,47.1,42.5,37.9,97,82,46,30.09,30.00,4,0,4,0.05
2013-3-27,67.5,52.2,42.8,53.9,44.3,23.0,98,78,39,30.03,29.94,4,0,4,0.04
2013-3-28,67.8,53.0,45.3,53.1,46.9,41.0,98,82,46,30.21,30.03,6,0,6,0.04
2013-3-29,70.5,54.5,42.6,56.6,45.6,40.9,98,76,38,30.27,30.18,6,0,6,0.00
2013-3-30,80.2,56.4,37.4,51.6,42.2,36.3,98,68,24,30.27,30.00,6,0,6,0.00
2013-3-31,81.3,57.0,39.4,54.1,42.8,37.1,98,67,23,30.06,29.88,9,0,9,0.00
2013-4-1,75.6,56.0,46.0,53.6,45.9,42.2,95,73,34,30.21,30.00,5,0,5,0.00
2013-4-2,65.1,54.0,47.7,50.7,46.9,43.8,96,78,50,30.27,30.18,6,0,6,0.00
2013-4-3,68.5,56.0,47.3,50.8,47.5,44.8,95,75,47,30.24,29.94,4,0,4,0.00
2013-4-4,60.1,53.4,49.5,58.0,51.3,48.1,98,93,76,29.97,29.68,6,0,6,0.21
2013-4-5,66.0,52.6,48.4,53.8,48.8,43.2,98,88,52,29.97,29.79,10,1,10,1.62
2013-4-6,63.1,49.7,42.8,52.2,43.1,35.9,98,81,41,30.00,29.68,10,1,10,1.74
2013-4-7,54.3,46.1,36.9,48.2,42.0,35.7,98,86,62,29.97,29.47,6,1,6,1.86
2013-4-8,60.8,45.4,35.2,47.9,38.6,34.5,98,80,42,30.36,29.97,6,0,6,0.00
2013-4-9,60.6,47.3,35.4,45.5,39.1,33.9,98,76,45,30.41,30.24,5,0,6,0.00
2013-4-10,59.7,50.7,42.1,54.0,44.2,37.6,96,79,54,30.39,30.12,8,1,8,0.13
2013-4-11,62.8,47.0,34.2,48.6,39.0,30.8,98,76,44,30.39,30.24,6,0,6,0.08
2013-4-12,55.0,42.4,32.7,44.1,37.7,30.1,98,85,50,30.24,29.82,6,0,6,0.08
2013-4-13,55.8,43.3,34.9,42.5,36.0,31.6,98,77,48,30.12,29.91,8,1,8,0.13
2013-4-14,60.3,43.8,34.9,43.9,37.1,32.7,98,80,40,30.12,29.97,6,0,6,0.08
2013-4-15,58.3,43.0,33.6,39.3,34.3,30.2,98,74,37,30.27,30.00,8,0,8,0.00
2013-4-16,64.4,47.8,36.3,45.2,35.6,27.2,98,68,28,30.44,30.24,8,1,8,0.00
2013-4-17,68.9,47.3,33.1,47.8,35.5,30.2,96,68,31,30.53,30.44,6,0,6,0.00
2013-4-18,61.9,50.0,41.4,47.0,41.3,35.7,95,74,41,30.53,30.36,5,0,6,0.04
2013-4-19,59.0,51.1,47.5,51.6,46.6,42.7,98,86,58,30.36,30.15,6,0,7,0.25
2013-4-20,58.6,50.5,45.0,48.7,42.8,38.1,94,76,51,30.39,30.33,8,0,8,0.17
2013-4-21,57.6,48.2,39.0,49.3,42.8,36.7,95,82,63,30.41,30.30,6,0,6,0.00
2013-4-22,70.3,50.0,31.1,49.8,32.8,26.9,98,61,23,30.53,30.36,7,1,7,0.00
2013-4-23,72.3,50.8,29.5,42.2,31.2,25.1,94,56,22,30.47,30.18,8,1,8,0.00
2013-4-24,79.7,54.6,30.4,44.8,31.6,20.6,94,52,15,30.36,30.06,9,1,9,0.17
2013-4-25,81.7,56.7,34.5,46.7,36.2,31.6,92,54,20,30.24,30.09,8,0,8,0.17
2013-4-26,81.9,58.2,38.1,49.4,37.1,26.7,96,55,17,30.33,30.21,6,1,6,0.00
2013-4-27,72.5,52.6,34.9,45.1,38.1,31.8,92,62,28,30.33,30.24,5,0,6,0.00
2013-4-28,72.3,56.4,44.6,51.8,42.1,36.3,95,63,32,30.36,30.09,8,0,8,0.17
2013-4-29,65.5,50.5,36.7,44.6,35.4,25.8,94,60,31,30.27,30.06,9,1,9,0.04
2013-4-30,60.6,45.5,33.3,44.9,33.3,24.7,97,66,29,30.53,30.24,7,1,7,0.13
2013-5-1,73.4,51.4,29.5,43.1,29.4,18.5,96,53,14,30.59,30.47,6,1,6,0.00
2013-5-2,84.0,58.9,33.3,44.8,35.3,30.0,91,50,16,30.56,30.30,6,0,6,0.00
2013-5-3,80.8,59.6,36.3,50.6,37.1,27.9,95,51,18,30.41,30.18,10,1,10,0.00
2013-5-4,88.0,63.8,38.3,52.0,38.7,33.0,94,49,18,30.24,29.94,8,1,8,0.00
2013-5-5,89.8,65.3,39.4,52.4,37.5,25.4,95,48,13,30.00,29.74,10,1,10,0.00
2013-5-6,90.5,65.1,41.0,54.1,44.6,38.6,94,56,19,29.91,29.76,6,0,8,0.00
2013-5-7,77.4,59.9,48.6,53.5,47.7,43.5,88,67,36,30.09,29.91,6,0,6,0.00
2013-5-8,77.2,58.9,49.3,51.8,47.8,45.1,93,70,34,30.24,30.06,5,0,5,0.00
2013-5-9,84.6,62.7,48.7,54.7,47.4,38.4,94,65,22,30.27,30.09,6,0,6,0.00
2013-5-10,89.4,66.8,43.9,54.9,47.4,40.7,98,58,21,30.27,30.12,6,0,6,0.00
2013-5-11,90.9,69.9,52.5,55.8,51.2,46.5,85,56,28,30.24,30.00,5,0,6,0.00
2013-5-12,73.9,64.0,58.1,60.4,53.0,44.7,92,70,42,30.15,30.06,5,0,5,23.85
2013-5-13,73.4,57.1,43.5,56.1,48.2,37.5,98,74,37,30.27,30.03,7,0,8,0.00
2013-5-14,72.3,55.5,39.6,47.8,39.3,32.2,97,61,27,30.30,30.12,6,0,6,0.00
2013-5-15,61.9,52.0,41.7,51.1,46.3,38.6,95,81,61,30.15,30.03,5,0,5,0.04
2013-5-16,73.2,56.3,49.3,58.8,52.3,47.9,98,88,50,30.06,29.94,4,0,4,0.37
2013-5-17,72.5,53.8,43.7,56.3,48.0,41.3,98,83,36,30.15,30.00,4,0,4,24.55
2013-5-18,62.2,52.8,43.5,53.5,48.4,42.7,98,86,59,30.36,30.12,4,0,4,0.04
2013-5-19,67.6,55.1,42.3,52.2,45.9,39.5,98,74,39,30.47,30.33,6,1,6,0.04
2013-5-20,77.2,54.8,40.5,46.7,43.7,38.9,97,70,31,30.44,29.94,5,0,5,0.78
2013-5-21,60.1,49.1,41.2,53.4,43.0,37.4,97,81,52,29.97,29.82,7,0,8,0.09
2013-5-22,53.1,46.1,40.3,48.7,43.9,39.5,98,92,75,30.00,29.91,4,0,4,1.20
2013-5-23,52.3,47.8,43.9,50.2,46.8,43.3,98,96,89,30.06,29.94,7,0,7,0.95
2013-5-24,66.9,52.2,44.4,56.5,46.8,42.1,98,83,49,30.15,29.97,7,0,7,0.37
2013-5-25,68.9,54.4,42.6,54.4,45.8,40.6,98,76,41,30.12,29.97,6,0,6,0.00
2013-5-26,70.9,57.2,48.9,56.9,48.9,41.7,98,77,42,30.06,29.94,8,0,8,0.30
2013-5-27,69.8,56.1,48.7,58.0,50.1,45.7,98,82,48,30.00,29.71,9,1,9,0.29
2013-5-28,71.6,57.0,48.7,52.8,45.3,39.2,96,68,37,29.94,29.76,8,1,8,0.12
2013-5-29,68.4,54.9,45.7,57.2,47.1,40.7,98,77,39,30.12,29.65,8,1,8,0.33
2013-5-30,66.7,53.0,45.0,53.9,48.1,43.6,98,85,51,30.33,30.06,4,0,4,0.33
2013-5-31,70.7,56.2,45.5,52.5,44.9,38.4,98,70,34,30.39,30.24,5,0,5,0.00
2013-6-1,79.9,60.3,43.5,54.5,46.8,41.8,98,67,31,30.33,30.06,6,0,6,0.00
2013-6-2,74.5,60.4,46.0,55.2,47.7,43.3,91,65,39,30.15,30.06,7,1,7,0.00
2013-6-3,79.5,59.7,44.1,53.4,46.6,42.3,96,67,32,30.18,30.06,6,1,6,0.00
2013-6-4,87.8,64.4,41.0,53.3,45.9,39.7,98,59,21,30.18,29.97,6,0,6,0.00
2013-6-5,86.0,67.2,46.0,57.1,50.8,44.7,97,61,31,30.15,30.00,8,1,9,0.00
2013-6-6,86.9,66.5,46.8,57.2,48.2,38.8,98,58,24,30.12,30.00,7,1,7,0.00
2013-6-7,80.2,60.1,43.5,54.0,46.4,39.4,95,65,31,30.21,30.06,5,0,6,0.00
2013-6-8,81.0,62.3,40.6,53.6,44.3,39.9,98,58,26,30.24,30.09,6,1,6,0.00
2013-6-9,78.4,61.6,44.6,53.1,43.9,39.4,89,57,28,30.18,30.03,8,1,8,0.00
2013-6-10,73.6,53.9,37.4,50.7,41.2,35.8,98,67,35,30.09,29.94,6,1,6,0.00
2013-6-11,70.0,55.1,40.8,54.6,43.3,37.8,96,68,36,30.21,30.03,6,0,6,0.04
2013-6-12,69.4,55.5,47.8,56.0,48.1,44.8,93,77,46,30.24,30.18,6,0,6,0.21
2013-6-13,66.9,55.5,47.8,57.7,48.6,42.9,98,80,49,30.36,30.18,5,0,6,3.36
2013-6-14,70.2,57.2,47.3,53.0,47.4,44.3,97,73,43,30.33,30.06,5,0,5,0.05
2013-6-15,87.1,64.0,43.7,58.0,47.3,38.8,98,63,20,30.06,29.88,6,0,7,0.05
2013-6-16,77.9,61.7,49.8,55.1,50.6,47.8,96,70,40,30.15,30.03,5,0,5,0.00
2013-6-17,55.6,53.2,52.2,51.1,50.2,47.8,93,89,81,30.12,30.00,2,0,2,0.00
2013-6-18,75.2,57.9,46.2,55.3,48.5,39.3,98,75,34,30.06,29.94,6,0,6,0.16
2013-6-19,70.3,57.6,49.1,56.7,49.3,43.7,98,77,43,30.12,29.97,6,0,6,0.09
2013-6-20,74.8,60.0,46.9,60.0,46.7,41.8,98,65,36,30.18,30.06,6,1,6,0.00
2013-6-21,76.5,61.2,51.4,54.3,49.3,43.4,94,68,36,30.21,30.15,5,0,5,0.00
2013-6-22,84.4,67.5,49.6,58.3,49.0,38.3,98,59,22,30.15,29.82,6,0,6,0.00
2013-6-23,73.4,63.6,57.2,61.5,57.6,53.7,98,82,55,29.85,29.62,4,0,172,0.16
2013-6-24,70.3,60.0,53.1,58.6,55.0,49.7,98,85,51,29.71,29.59,6,0,6,0.21
2013-6-25,73.8,61.2,54.5,60.6,55.6,51.9,98,83,52,29.85,29.65,6,0,6,0.17
2013-6-26,73.2,64.1,56.3,60.5,56.4,52.2,98,78,52,30.09,29.82,6,0,6,30.11
2013-6-27,78.8,66.7,58.8,66.3,60.4,56.9,98,82,52,30.21,30.00,6,0,6,0.08
2013-6-28,94.8,73.8,58.8,67.6,59.6,52.2,98,68,27,30.18,30.00,6,0,6,0.00
2013-6-29,93.0,74.7,58.5,67.4,57.3,52.0,97,61,28,30.12,29.94,5,0,5,0.00
2013-6-30,99.3,77.4,56.7,66.8,58.5,55.8,98,60,26,30.00,29.76,5,0,5,0.00
2013-7-1,95.4,75.0,58.6,65.2,58.4,54.5,97,62,30,30.06,29.88,6,1,6,0.00
2013-7-2,89.6,70.6,57.9,61.4,54.8,46.9,95,63,26,30.15,30.00,6,0,6,0.00
2013-7-3,88.2,67.1,49.5,58.5,48.3,40.8,98,58,23,30.24,30.03,6,1,6,0.00
2013-7-4,76.5,61.2,46.4,56.8,48.4,44.8,97,66,38,30.21,30.09,6,1,6,0.00
2013-7-5,81.1,63.2,50.7,54.6,50.0,45.5,92,66,31,30.12,29.97,6,1,6,0.00
2013-7-6,81.5,63.4,46.0,57.1,50.4,44.7,97,67,34,30.06,29.82,8,1,8,0.00
2013-7-7,81.7,62.8,49.3,57.0,51.7,47.6,97,71,36,30.03,29.88,6,0,6,0.00
2013-7-8,85.8,66.0,49.5,55.2,51.8,46.6,96,66,30,30.15,30.00,5,0,5,0.00
2013-7-9,90.3,70.6,51.8,61.3,52.3,46.2,98,60,28,30.12,29.97,8,0,8,0.00
2013-7-10,81.1,62.1,49.1,54.8,48.8,43.3,96,66,29,30.15,30.00,6,0,6,0.00
2013-7-11,79.7,62.0,46.8,51.2,45.6,42.1,93,60,28,30.15,30.00,7,0,7,0.00
2013-7-12,74.5,58.1,40.8,52.9,45.0,39.6,96,66,35,30.21,30.06,6,0,6,0.00
2013-7-13,82.0,62.2,40.3,54.6,44.0,38.5,98,60,23,30.30,30.06,7,0,7,0.00
2013-7-14,88.9,66.5,43.5,57.9,44.2,37.0,97,54,20,30.21,30.00,8,1,8,0.00
2013-7-15,65.7,54.4,47.3,45.9,44.0,41.3,87,69,41,30.12,29.85,0,0,0,0.00
2013-7-16,90.0,67.5,47.3,62.1,51.1,45.0,96,60,29,30.00,29.76,5,0,5,0.00
2013-7-17,79.7,63.4,51.8,59.6,54.2,49.5,96,75,39,30.24,30.00,5,0,5,0.00
2013-7-18,84.2,64.4,49.6,56.3,52.2,47.3,97,70,30,30.30,30.09,6,0,6,0.00
2013-7-19,85.1,64.4,51.6,59.6,53.9,49.1,95,73,38,30.24,30.00,6,0,172,0.00
2013-7-20,85.6,64.5,54.0,58.5,53.4,48.1,94,72,33,30.15,29.94,5,0,6,0.00
2013-7-21,84.6,66.0,55.0,58.5,53.8,51.6,92,69,34,30.06,29.88,5,1,6,0.00
2013-7-22,85.5,68.0,55.9,57.1,53.7,50.5,90,65,33,30.12,29.94,7,0,7,0.00
2013-7-23,91.8,70.1,49.6,62.5,53.3,47.7,98,64,24,30.12,29.88,6,0,6,0.00
2013-7-24,91.4,70.4,48.2,59.5,52.5,47.7,98,60,27,30.12,29.94,6,0,6,0.00
2013-7-25,91.8,68.9,45.9,57.2,49.3,44.3,98,57,22,30.15,30.00,7,0,7,0.00
2013-7-26,93.4,69.0,45.9,52.8,45.5,38.7,94,50,20,30.21,30.09,6,1,6,0.00
2013-7-27,83.7,62.7,47.3,58.2,46.9,42.4,95,63,30,30.24,30.06,6,1,6,0.00
2013-7-28,77.7,59.0,45.3,54.4,48.7,43.4,95,72,37,30.09,30.00,7,0,7,0.00
2013-7-29,80.8,64.4,54.1,54.0,51.3,48.6,87,65,35,30.09,29.94,5,0,5,0.00
2013-7-30,83.1,64.5,54.0,56.9,53.2,48.4,92,71,33,30.21,30.06,6,0,6,0.00
2013-7-31,77.4,63.0,55.6,58.5,54.5,51.5,94,76,44,30.18,30.03,3,0,4,0.00
2013-8-1,69.3,61.0,55.9,56.0,53.8,50.8,94,78,54,30.15,30.06,4,0,4,0.00
2013-8-2,72.7,62.3,52.7,58.8,53.9,49.2,97,76,46,30.18,30.12,4,0,4,0.00
2013-8-3,82.0,65.7,53.2,59.0,55.5,52.3,98,74,40,30.18,30.00,7,0,7,0.00
2013-8-4,89.6,69.4,52.0,64.8,55.6,51.4,98,68,30,30.09,29.88,6,0,7,0.00
2013-8-5,92.1,70.0,50.4,61.7,53.3,47.1,98,63,29,30.06,29.88,6,0,6,0.00
2013-8-6,93.6,68.6,43.2,57.6,46.5,40.5,98,56,17,30.09,29.88,6,0,6,0.00
2013-8-7,89.8,66.7,46.2,58.6,50.3,45.0,98,62,28,30.12,29.94,6,1,6,0.00
2013-8-8,86.9,68.6,55.6,60.5,55.1,48.8,93,66,35,30.09,29.91,6,1,6,0.00
2013-8-9,87.1,65.3,48.9,64.0,54.4,47.8,98,71,35,30.00,29.82,4,0,4,0.00
2013-8-10,82.2,66.3,57.7,62.3,56.2,53.7,93,73,42,30.06,29.94,6,0,6,0.00
2013-8-11,73.8,63.1,53.6,59.6,55.7,51.5,97,78,55,30.12,30.00,4,0,4,0.00
2013-8-12,82.2,65.7,53.4,57.4,53.1,48.1,92,67,34,30.12,30.00,6,0,6,0.00
2013-8-13,88.0,67.6,49.1,58.1,49.6,36.8,98,61,19,30.15,29.88,5,0,5,0.00
2013-8-14,89.1,64.0,48.0,59.9,53.3,47.1,98,74,28,30.03,29.91,4,0,5,0.08
2013-8-15,74.1,66.0,60.6,67.0,63.6,59.4,98,92,73,30.00,29.94,3,0,3,0.00
2013-8-16,88.5,69.6,55.6,68.9,59.9,49.0,98,75,42,30.03,29.94,6,0,6,0.00
2013-8-17,86.7,66.0,52.7,59.1,55.0,50.5,97,72,35,30.12,30.00,6,0,6,0.08
2013-8-18,86.0,65.8,50.4,62.3,53.6,49.8,98,70,33,30.18,30.06,6,0,6,0.00
2013-8-19,81.5,64.1,50.7,55.6,52.2,47.9,98,69,39,30.15,30.06,7,1,7,0.00
2013-8-20,85.6,63.3,44.2,57.5,48.6,43.7,98,66,29,30.21,30.00,172,0,172,0.00
2013-8-21,89.6,65.4,43.5,58.8,48.9,42.9,98,64,23,30.09,29.85,5,0,5,0.00
2013-8-22,84.7,65.6,47.7,59.8,53.5,46.8,98,69,34,29.97,29.82,4,0,4,0.00
2013-8-23,78.3,65.3,58.8,57.1,54.3,50.2,91,70,40,29.97,29.88,5,1,6,28.82
2013-8-24,77.4,64.6,54.3,61.5,53.4,46.2,98,71,39,29.94,29.85,6,1,6,21.19
2013-8-25,70.7,60.1,48.9,59.9,54.6,48.1,98,84,59,29.97,29.88,3,0,3,0.04
2013-8-26,80.8,64.5,56.8,63.9,55.7,43.5,98,79,31,29.97,29.88,7,0,7,0.13
2013-8-27,81.7,67.0,58.1,66.9,59.4,53.0,98,80,40,30.00,29.76,5,0,5,0.04
2013-8-28,82.0,68.6,59.2,67.2,60.7,55.7,98,79,42,29.91,29.82,6,0,6,0.12
2013-8-29,79.0,67.3,61.5,68.3,62.3,59.3,98,85,54,30.03,29.82,8,1,8,0.13
2013-8-30,82.2,66.3,54.3,66.8,57.7,51.8,98,77,41,30.15,30.03,5,0,5,0.00
2013-8-31,87.4,67.5,52.0,63.5,54.2,50.4,98,70,30,30.09,29.79,4,1,4,0.00
2013-9-1,86.2,66.2,53.1,62.2,53.8,49.0,98,70,33,29.94,29.76,5,1,5,0.00
2013-9-2,79.3,66.9,56.8,63.3,56.3,50.1,93,72,40,29.94,29.85,6,0,6,0.00
2013-9-3,82.2,65.2,56.5,62.1,56.0,50.8,98,76,38,30.03,29.91,7,0,7,0.00
2013-9-4,78.1,63.3,53.4,62.3,57.2,52.7,98,82,49,30.09,30.00,5,0,5,0.00
2013-9-5,71.4,62.2,58.1,66.1,60.0,56.3,98,93,78,30.09,29.94,5,0,5,0.79
2013-9-6,71.6,63.2,59.2,67.8,60.5,57.6,98,92,62,30.15,30.00,5,0,5,0.74
2013-9-7,81.7,66.1,57.6,64.4,58.2,51.9,98,80,41,30.12,29.94,5,0,5,0.00
2013-9-8,86.5,66.9,52.5,66.5,56.8,51.8,98,75,36,30.12,29.97,6,0,6,0.00
2013-9-9,86.0,66.8,54.5,62.8,58.4,54.0,98,79,40,30.09,29.91,6,1,6,0.00
2013-9-10,89.4,66.4,54.0,66.5,58.1,53.4,98,80,34,30.00,29.12,5,0,5,0.00
2013-9-11,100.0,72.4,54.7,67.8,55.9,44.2,98,67,17,29.32,29.12,7,0,7,0.00
2013-9-12,88.3,67.2,56.3,62.1,57.6,54.6,97,76,37,29.38,29.20,6,0,6,0.00
2013-9-13,75.9,63.8,57.0,61.4,58.7,55.8,98,85,57,29.35,29.17,6,1,6,0.00
2013-9-14,77.2,64.9,58.5,62.5,60.2,57.8,98,86,56,29.23,29.03,5,0,5,0.00
2013-9-15,67.3,62.1,59.4,63.0,60.2,58.5,98,94,81,29.20,29.06,3,0,3,0.04
2013-9-16,76.6,63.8,56.3,64.1,56.7,52.4,98,80,52,29.32,29.17,5,0,5,0.00
2013-9-17,77.7,59.5,48.4,61.5,49.4,42.3,98,74,30,29.38,29.20,6,1,6,0.00
2013-9-18,76.6,56.1,44.6,57.9,47.0,42.5,98,76,37,29.47,29.35,6,0,6,0.00
2013-9-19,83.8,59.2,45.5,56.5,45.5,34.0,98,70,23,29.38,29.12,7,0,7,0.00
2013-9-20,77.0,56.1,44.4,57.7,50.7,43.3,98,85,37,29.14,29.00,6,0,6,0.00
2013-9-21,75.4,58.5,50.2,59.2,53.9,47.3,98,87,41,29.14,29.03,5,0,5,0.17
2013-9-22,61.0,53.9,48.4,59.8,52.8,47.8,98,96,82,29.20,28.97,8,0,9,0.37
2013-9-23,63.0,54.8,49.5,60.3,53.5,48.9,98,95,80,29.38,29.17,4,0,4,0.29
2013-9-24,68.4,52.6,47.3,58.1,50.3,45.7,98,93,53,29.35,29.17,6,0,6,0.21
2013-9-25,65.8,51.5,43.5,56.8,46.6,43.0,98,85,53,30.15,29.20,5,0,5,0.00
2013-9-26,70.3,52.1,41.5,57.9,45.9,41.0,98,83,45,30.27,30.12,5,0,5,0.00
2013-9-27,57.6,50.1,41.5,55.5,49.2,41.0,98,97,90,30.30,29.94,4,0,4,0.37
2013-9-28,61.3,55.4,48.7,60.8,54.8,48.2,98,98,96,30.00,29.53,9,1,9,1.87
2013-9-29,54.0,51.6,48.2,53.4,51.1,47.7,98,98,98,29.74,29.35,13,1,13,1.95
2013-9-30,64.4,51.6,44.8,60.1,48.8,42.4,98,91,54,30.06,29.59,6,0,6,0.53
2013-10-1,61.5,49.4,39.7,60.2,46.2,39.2,98,90,51,30.30,30.00,5,0,5,0.29
2013-10-2,55.6,45.5,39.2,52.7,44.4,38.7,98,96,81,30.27,30.15,3,0,3,0.63
2013-10-3,63.5,48.6,42.3,58.4,45.5,41.7,98,90,58,30.53,30.27,4,0,4,0.00
2013-10-4,71.1,49.7,37.8,55.9,42.0,36.4,98,80,32,30.59,30.44,5,0,6,0.00
2013-10-5,76.5,52.4,37.8,54.8,42.7,37.2,98,76,29,30.47,30.21,4,0,4,0.00
2013-10-6,79.2,54.1,36.5,56.6,42.8,36.0,98,73,30,30.27,30.00,8,0,8,0.00
2013-10-7,67.3,54.0,47.5,57.6,48.4,41.2,98,84,44,30.24,30.03,8,0,8,0.04
2013-10-8,55.0,49.3,43.5,53.7,48.2,43.0,98,96,85,30.21,30.06,4,0,4,0.29
2013-10-9,65.5,47.6,35.1,56.3,41.4,34.5,98,82,41,30.24,30.06,3,0,3,0.04
2013-10-10,59.4,49.0,42.4,51.9,46.3,41.6,98,91,63,30.18,30.03,5,0,5,0.00
2013-10-11,63.0,50.4,44.2,52.5,45.2,40.2,98,84,47,30.27,30.18,3,0,3,0.00
2013-10-12,58.6,48.4,39.7,53.0,45.3,39.2,98,90,66,30.27,30.15,3,0,3,0.00
2013-10-13,65.5,46.5,36.3,50.8,40.5,35.8,98,83,44,30.44,30.27,3,0,4,0.00
2013-10-14,55.0,41.6,35.8,42.8,38.7,35.3,98,90,61,30.47,30.41,0,0,0,5.93
2013-10-15,71.4,48.2,35.6,52.1,39.1,33.5,98,77,28,30.50,30.24,4,0,4,0.00
2013-10-16,69.6,48.4,36.9,51.9,40.7,36.1,98,79,38,30.30,30.18,4,0,4,0.00
2013-10-17,70.3,48.2,39.0,53.6,42.5,38.3,98,84,43,30.36,30.24,3,0,3,0.00
2013-10-18,75.6,49.2,36.3,52.0,40.4,35.8,98,78,26,30.33,30.18,4,0,4,0.00
2013-10-19,74.1,49.7,35.1,50.4,41.3,34.5,98,78,34,30.27,30.18,4,0,4,0.00
2013-10-20,73.8,49.8,40.1,53.4,43.5,38.8,98,83,39,30.30,30.15,4,0,4,0.00
2013-10-21,83.7,53.1,37.4,53.6,43.7,36.9,98,77,24,30.21,30.06,4,0,4,0.00
2013-10-22,84.2,54.1,36.3,54.6,43.1,35.8,98,75,22,30.18,30.03,5,0,5,0.00
2013-10-23,81.0,53.1,38.5,54.6,44.2,38.0,98,78,29,30.12,30.00,5,0,5,0.00
2013-10-24,75.7,52.7,42.8,53.2,47.2,42.3,98,85,42,30.21,30.06,4,0,4,0.00
2013-10-25,55.4,49.9,42.8,52.2,48.1,42.3,98,94,83,30.41,30.18,2,0,3,0.00
2013-10-26,64.9,47.9,39.9,50.9,43.8,39.4,98,87,49,30.41,30.27,4,0,230,0.00
2013-10-27,61.3,49.8,43.2,55.6,45.4,39.6,98,86,53,30.27,29.94,11,0,11,0.04
2013-10-28,64.8,44.2,33.3,52.8,36.7,32.0,98,79,37,30.03,29.88,4,0,5,0.00
2013-10-29,65.1,41.0,30.6,45.8,32.8,28.0,98,78,29,30.15,30.00,3,0,3,0.00
2013-10-30,47.5,37.0,29.1,44.8,34.6,27.1,92,91,89,30.27,30.15,0,0,0,0.00
2013-10-31,60.3,52.0,47.3,52.5,48.6,44.5,96,89,73,30.41,30.24,4,0,4,0.00
2013-11-1,66.0,53.2,46.6,53.6,49.1,46.0,98,87,56,30.39,29.94,4,0,4,0.21
2013-11-2,60.4,48.3,37.6,50.7,44.2,22.5,98,88,46,30.15,29.76,9,1,9,0.41
2013-11-3,54.0,42.7,36.1,51.8,41.0,35.6,98,94,72,30.24,30.12,4,0,4,0.25
2013-11-4,48.2,44.6,38.8,47.7,44.1,38.3,98,98,98,30.27,30.15,6,0,6,0.25
2013-11-5,57.7,50.1,47.1,57.0,48.5,46.6,98,94,73,30.33,30.15,7,0,7,0.04
2013-11-6,56.1,50.2,46.4,53.1,49.0,45.9,98,96,82,30.39,30.15,3,0,3,0.29
2013-11-7,54.9,49.6,45.5,54.3,48.6,45.0,98,96,81,30.21,29.91,9,0,9,0.79
2013-11-8,53.1,46.3,43.0,52.5,45.6,42.5,98,98,92,30.27,30.18,4,0,4,0.08
2013-11-9,49.5,44.5,39.9,48.7,44.0,39.4,98,98,96,30.24,30.12,2,0,2,0.00
2013-11-10,61.5,48.9,42.4,56.2,46.2,41.9,98,91,65,30.18,30.12,3,0,3,0.00
2013-11-11,64.2,47.3,36.1,53.3,42.5,35.6,98,86,45,30.27,30.12,6,0,6,0.00
2013-11-12,61.0,50.9,43.9,56.0,49.3,43.3,98,95,73,30.53,30.18,4,0,4,0.21
2013-11-13,61.3,48.9,43.2,53.3,46.7,42.6,98,93,61,30.59,30.41,4,0,4,0.00
2013-11-14,52.0,45.3,39.2,50.3,44.0,38.7,98,95,81,30.41,30.18,4,0,4,0.00
2013-11-15,48.7,43.0,38.1,48.0,42.3,37.6,98,97,85,30.21,29.62,5,0,5,0.29
2013-11-16,54.7,43.8,40.8,49.4,41.9,38.8,98,93,72,29.91,29.59,6,0,6,0.13
2013-11-17,52.7,46.5,39.6,50.5,45.4,39.0,98,96,82,30.06,29.91,6,0,6,0.12
2013-11-18,52.7,49.5,47.7,49.6,48.2,46.3,98,95,81,30.06,29.71,8,1,8,0.25
2013-11-19,50.5,44.0,31.1,50.0,43.1,30.6,98,97,90,30.12,29.74,7,0,7,0.46
2013-11-20,48.6,33.2,25.2,40.8,27.8,22.0,98,83,44,30.53,30.12,7,0,7,0.08
2013-11-21,53.2,30.7,19.4,36.6,22.5,3.9,98,76,26,30.71,30.53,4,0,4,0.00
2013-11-22,57.6,31.9,17.6,35.1,19.9,9.7,95,70,17,30.71,30.53,8,0,8,0.00
2013-11-23,59.7,34.5,21.6,34.6,22.8,13.3,96,69,19,30.53,30.30,6,0,6,0.00
2013-11-24,61.0,34.7,22.8,37.7,24.5,20.8,96,72,27,30.39,30.24,3,0,4,0.00
2013-11-25,59.2,34.4,22.1,37.7,26.3,20.1,96,76,35,30.44,30.36,3,0,3,0.00
2013-11-26,46.0,35.1,25.3,41.8,32.1,23.8,98,89,70,30.39,30.18,2,0,2,0.00
2013-11-27,63.5,41.1,30.6,47.9,33.7,28.3,98,80,32,30.18,30.06,5,0,5,0.00
2013-11-28,63.0,37.0,26.4,40.7,30.4,25.8,98,81,35,30.33,30.12,2,0,2,0.00
2013-11-29,44.2,35.4,25.9,40.3,34.0,25.1,98,95,85,30.44,30.30,2,0,2,0.00
2013-11-30,52.9,44.2,38.5,48.0,42.6,38.0,98,94,80,30.50,30.30,2,0,2,0.08
2013-12-1,56.3,50.1,43.5,55.2,49.5,43.0,98,98,95,30.30,30.00,8,0,8,1.54
2013-12-2,48.9,38.3,31.6,48.4,37.2,31.1,98,96,77,30.15,30.00,5,0,5,0.29
2013-12-3,43.7,33.3,29.1,39.9,32.2,28.6,98,96,75,30.41,30.12,5,0,5,0.00
2013-12-4,42.4,28.7,18.0,35.8,22.6,6.7,98,81,38,30.44,30.36,4,0,4,0.00
2013-12-5,35.8,23.2,12.9,29.0,17.3,10.6,94,79,48,30.41,30.24,3,0,3,0.00
2013-12-6,30.9,24.3,12.0,20.2,12.9,2.9,85,62,46,30.24,30.06,7,1,7,0.00
2013-12-7,35.2,15.7,5.0,21.0,3.7,-3.9,84,60,32,30.53,30.18,4,0,4,0.00
2013-12-8,26.4,13.2,2.5,17.3,6.1,-5.3,82,73,62,30.68,30.53,3,0,3,0.00
2013-12-9,30.4,20.7,7.7,23.3,16.0,3.1,90,82,68,30.68,30.62,3,0,3,0.00
2013-12-10,38.3,31.5,26.1,34.5,29.4,23.1,98,92,83,30.62,30.50,2,0,2,0.00
2013-12-11,49.3,32.7,25.0,36.3,28.7,24.3,98,87,56,30.50,29.65,4,0,4,0.00
2013-12-12,34.3,29.5,22.8,33.8,29.0,21.9,98,98,96,30.24,30.12,3,0,3,0.00
2013-12-13,46.0,37.9,33.6,45.3,37.3,33.1,98,97,94,30.53,30.24,2,0,2,0.04
2013-12-14,43.5,38.2,34.7,43.0,37.7,34.2,98,98,98,30.53,30.41,1,0,1,0.00
2013-12-15,48.4,40.6,36.5,45.9,39.8,36.0,98,97,90,30.56,30.47,3,0,3,0.00
2013-12-16,44.6,38.2,33.3,44.1,37.7,32.8,98,98,98,30.56,30.33,2,0,2,0.00
2013-12-17,38.5,34.3,30.6,37.8,33.8,30.1,98,98,98,30.33,30.21,3,0,3,0.00
2013-12-18,47.5,37.2,29.7,47.0,36.7,29.2,98,98,95,30.21,30.06,3,0,3,0.09
2013-12-19,45.5,31.9,25.0,40.2,29.9,24.5,98,93,70,30.39,30.18,3,0,3,0.00
2013-12-20,38.8,34.2,30.2,38.3,33.7,29.7,98,98,98,30.27,29.88,5,0,5,0.24
2013-12-21,51.3,42.8,37.6,50.7,42.3,37.1,98,98,98,30.30,29.97,2,0,2,0.04
2013-12-22,52.2,45.2,41.5,51.6,44.7,41.0,98,98,98,30.41,30.24,2,0,2,0.05
2013-12-23,51.6,43.4,34.9,51.1,42.8,34.4,98,98,98,30.62,30.33,4,0,4,0.16
2013-12-24,50.0,35.2,31.8,47.5,34.6,31.3,98,98,86,30.71,30.53,2,0,3,0.00
2013-12-25,53.1,36.2,30.0,43.9,33.7,29.5,98,92,57,30.59,30.41,4,0,4,0.00
2013-12-26,55.6,34.3,26.1,42.2,30.7,25.6,98,88,49,30.44,30.24,3,0,3,0.58
2013-12-27,51.6,34.7,25.7,44.1,32.7,25.2,98,93,66,30.44,30.21,2,0,2,0.58
2013-12-28,45.9,39.1,34.2,44.1,37.1,33.7,98,93,77,30.56,30.44,4,0,4,0.00
2013-12-29,46.6,36.0,33.1,42.9,35.1,32.6,98,97,84,30.50,30.33,2,0,3,0.00
2013-12-30,44.6,36.9,31.6,43.0,36.0,31.1,98,96,84,30.36,30.24,4,0,4,0.00
2013-12-31,48.7,40.5,33.8,46.4,39.3,33.3,98,96,83,30.44,30.27,2,0,2,0.58
2014-1-1,51.3,43.1,37.4,49.4,42.3,36.9,98,97,89,30.44,30.30,2,0,2,0.00
2014-1-2,54.1,41.4,34.5,47.5,38.7,34.0,98,91,65,30.33,30.09,4,0,4,0.13